createdAt,value
2022-11-05T00:00:59.982Z,21.73
2022-11-05T00:06:34.734Z,21.70
2022-11-05T00:11:56.254Z,21.69
2022-11-05T00:16:58.861Z,21.70
2022-11-05T00:22:19.093Z,21.70
2022-11-05T00:27:23.162Z,21.71
2022-11-05T00:32:25.813Z,21.67
2022-11-05T00:37:28.617Z,21.69
2022-11-05T00:42:50.313Z,21.67
2022-11-05T00:48:10.642Z,21.66
2022-11-05T00:53:13.619Z,21.64
2022-11-05T00:58:18.578Z,21.61
2022-11-05T01:03:22.407Z,21.63
2022-11-05T01:08:26.164Z,21.62
2022-11-05T01:13:30.655Z,21.62
2022-11-05T01:18:33.248Z,21.61
2022-11-05T01:23:36.004Z,21.61
2022-11-05T01:28:39.973Z,21.62
2022-11-05T01:33:42.621Z,21.66
2022-11-05T01:38:45.283Z,21.61
2022-11-05T01:43:50.147Z,21.63
2022-11-05T01:48:56.171Z,21.64
2022-11-05T01:54:02.527Z,21.61
2022-11-05T01:59:07.783Z,21.61
2022-11-05T02:04:17.743Z,21.63
2022-11-05T02:09:22.496Z,21.62
2022-11-05T02:14:26.505Z,21.62
2022-11-05T02:20:06.259Z,21.60
2022-11-05T02:25:17.644Z,21.60
2022-11-05T02:30:30.743Z,21.62
2022-11-05T02:35:49.984Z,21.62
2022-11-05T02:40:56.377Z,21.61
2022-11-05T02:46:11.048Z,21.58
2022-11-05T02:51:15.862Z,21.58
2022-11-05T02:56:23.271Z,21.60
2022-11-05T03:01:27.391Z,21.62
2022-11-05T03:07:00.110Z,21.58
2022-11-05T03:12:06.408Z,21.59
2022-11-05T03:17:13.652Z,21.61
2022-11-05T03:22:17.477Z,21.58
2022-11-05T03:27:22.364Z,21.58
2022-11-05T03:32:26.279Z,21.60
2022-11-05T03:37:29.862Z,21.55
2022-11-05T03:42:34.410Z,21.61
2022-11-05T03:47:39.291Z,21.57
2022-11-05T03:52:45.250Z,21.58
2022-11-05T03:57:48.097Z,21.63
2022-11-05T04:02:52.334Z,21.59
2022-11-05T04:08:14.443Z,21.62
2022-11-05T04:13:26.234Z,21.58
2022-11-05T04:18:30.235Z,21.60
2022-11-05T04:23:52.665Z,21.62
2022-11-05T04:29:12.795Z,21.60
2022-11-05T04:34:18.729Z,21.61
2022-11-05T04:39:21.419Z,21.61
2022-11-05T04:44:24.015Z,21.62
2022-11-05T04:49:27.968Z,21.59
2022-11-05T04:54:30.823Z,21.59
2022-11-05T04:59:33.443Z,21.63
2022-11-05T05:04:37.429Z,21.61
2022-11-05T05:09:40.110Z,21.61
2022-11-05T05:14:45.023Z,21.62
2022-11-05T05:20:06.629Z,21.62
2022-11-05T05:25:09.582Z,21.59
2022-11-05T05:30:12.863Z,21.62
2022-11-05T05:35:17.180Z,21.59
2022-11-05T05:40:19.819Z,21.61
2022-11-05T05:45:22.611Z,21.59
2022-11-05T05:50:26.622Z,21.60
2022-11-05T05:55:29.232Z,21.59
2022-11-05T06:00:31.871Z,21.63
2022-11-05T06:05:35.876Z,21.57
2022-11-05T06:10:38.767Z,21.57
2022-11-05T06:15:41.468Z,21.59
2022-11-05T06:20:45.526Z,21.60
2022-11-05T06:25:48.146Z,21.60
2022-11-05T06:30:51.492Z,21.59
2022-11-05T06:35:55.699Z,21.61
2022-11-05T06:40:59.171Z,21.57
2022-11-05T06:46:02.336Z,21.56
2022-11-05T06:51:07.947Z,21.57
2022-11-05T06:56:10.550Z,21.56
2022-11-05T07:01:13.195Z,21.56
2022-11-05T07:06:18.413Z,21.55
2022-11-05T07:11:21.161Z,21.57
2022-11-05T07:16:23.825Z,21.54
2022-11-05T07:21:27.845Z,21.54
2022-11-05T07:26:34.383Z,21.57
2022-11-05T07:31:37.403Z,21.54
2022-11-05T07:36:41.565Z,21.53
2022-11-05T07:41:44.211Z,21.55
2022-11-05T07:46:46.847Z,21.51
2022-11-05T07:51:51.003Z,21.55
2022-11-05T07:56:53.879Z,21.57
2022-11-05T08:01:56.556Z,21.56
2022-11-05T08:07:00.660Z,21.48
2022-11-05T08:12:03.555Z,21.42
2022-11-05T08:17:06.242Z,21.43
2022-11-05T08:22:10.251Z,21.48
2022-11-05T08:27:12.866Z,21.44
2022-11-05T08:32:16.575Z,21.43
2022-11-05T08:37:20.555Z,21.44
2022-11-05T08:42:23.145Z,21.33
2022-11-05T08:47:26.283Z,19.68
2022-11-05T08:52:30.322Z,19.15
2022-11-05T08:57:33.062Z,19.99
2022-11-05T09:02:35.842Z,20.21
2022-11-05T09:07:39.822Z,20.38
2022-11-05T09:12:42.465Z,20.47
2022-11-05T09:17:45.164Z,20.56
2022-11-05T09:22:49.357Z,20.67
2022-11-05T09:27:51.961Z,20.63
2022-11-05T09:32:54.645Z,20.68
2022-11-05T09:38:01.110Z,20.71
2022-11-05T09:43:04.121Z,20.73
2022-11-05T09:48:09.344Z,20.59
2022-11-05T09:53:14.106Z,20.61
2022-11-05T09:58:18.615Z,20.65
2022-11-05T10:03:22.663Z,20.75
2022-11-05T10:08:29.362Z,20.85
2022-11-05T10:13:36.022Z,20.90
2022-11-05T10:18:40.576Z,20.92
2022-11-05T10:23:44.709Z,20.96
2022-11-05T10:28:47.377Z,20.99
2022-11-05T10:33:51.228Z,20.96
2022-11-05T10:38:57.387Z,20.97
2022-11-05T10:44:04.394Z,20.97
2022-11-05T10:49:17.174Z,20.99
2022-11-05T10:54:22.892Z,21.01
2022-11-05T10:59:26.590Z,21.06
2022-11-05T11:04:33.619Z,21.09
2022-11-05T11:09:41.564Z,21.17
2022-11-05T11:14:44.214Z,21.17
2022-11-05T11:19:46.935Z,21.09
2022-11-05T11:24:53.779Z,21.11
2022-11-05T11:29:58.420Z,21.11
2022-11-05T11:35:01.502Z,21.14
2022-11-05T11:40:06.741Z,21.12
2022-11-05T11:45:16.417Z,21.18
2022-11-05T11:50:34.170Z,21.15
2022-11-05T11:55:38.385Z,21.17
2022-11-05T12:00:43.791Z,21.29
2022-11-05T12:05:48.736Z,21.37
2022-11-05T12:10:57.613Z,21.53
2022-11-05T12:16:03.949Z,21.64
2022-11-05T12:21:08.059Z,21.64
2022-11-05T12:26:16.393Z,21.74
2022-11-05T12:31:23.600Z,21.82
2022-11-05T12:36:40.098Z,21.84
2022-11-05T12:41:48.288Z,21.87
2022-11-05T12:46:57.218Z,21.92
2022-11-05T12:52:10.624Z,21.95
2022-11-05T12:57:14.902Z,21.86
2022-11-05T13:02:21.957Z,21.76
2022-11-05T13:07:27.428Z,21.77
2022-11-05T13:12:32.468Z,21.79
2022-11-05T13:17:37.937Z,21.87
2022-11-05T13:22:43.663Z,21.92
2022-11-05T13:27:52.888Z,21.95
2022-11-05T13:32:59.700Z,21.88
2022-11-05T13:38:38.021Z,21.88
2022-11-05T13:43:56.278Z,21.83
2022-11-05T13:49:09.632Z,21.81
2022-11-05T13:54:45.767Z,21.87
2022-11-05T14:00:05.201Z,21.81
2022-11-05T14:05:08.265Z,21.82
2022-11-05T14:10:15.810Z,21.82
2022-11-05T14:15:22.068Z,21.80
2022-11-05T14:20:27.575Z,21.78
2022-11-05T14:26:12.533Z,21.74
2022-11-05T14:31:47.213Z,21.76
2022-11-05T14:37:25.584Z,21.79
2022-11-05T14:42:28.905Z,21.81
2022-11-05T14:47:34.252Z,21.77
2022-11-05T14:52:36.987Z,21.78
2022-11-05T14:58:03.046Z,21.76
2022-11-05T15:03:42.627Z,21.76
2022-11-05T15:09:24.061Z,21.62
2022-11-05T15:14:28.884Z,21.55
2022-11-05T15:19:34.314Z,21.53
2022-11-05T15:24:37.460Z,21.45
2022-11-05T15:29:40.312Z,21.41
2022-11-05T15:34:56.561Z,21.35
2022-11-05T15:39:59.332Z,21.30
2022-11-05T15:45:02.091Z,21.22
2022-11-05T15:50:14.674Z,21.17
2022-11-05T15:55:23.679Z,21.13
2022-11-05T16:00:27.741Z,21.13
2022-11-05T16:05:34.045Z,21.17
2022-11-05T16:10:38.688Z,21.16
2022-11-05T16:15:53.951Z,21.16
2022-11-05T16:21:05.476Z,21.16
2022-11-05T16:26:55.874Z,21.20
2022-11-05T16:31:50.155Z,21.18
2022-11-05T16:36:56.512Z,21.20
2022-11-05T16:41:59.131Z,21.15
2022-11-05T16:47:01.904Z,21.16
2022-11-05T16:52:09.831Z,21.14
2022-11-05T16:57:16.117Z,21.11
2022-11-05T17:02:18.925Z,21.15
2022-11-05T17:07:23.058Z,21.22
2022-11-05T17:12:25.968Z,21.26
2022-11-05T17:17:28.952Z,21.30
2022-11-05T17:22:32.953Z,21.37
2022-11-05T17:27:35.615Z,21.38
2022-11-05T17:32:38.414Z,21.39
2022-11-05T17:37:42.634Z,21.38
2022-11-05T17:42:46.113Z,21.41
2022-11-05T17:47:48.741Z,21.37
2022-11-05T17:52:52.772Z,21.38
2022-11-05T17:57:55.600Z,21.37
2022-11-05T18:02:58.377Z,21.35
2022-11-05T18:08:02.369Z,21.39
2022-11-05T18:13:05.170Z,21.41
2022-11-05T18:18:10.467Z,21.37
2022-11-05T18:23:15.123Z,21.34
2022-11-05T18:28:18.184Z,21.35
2022-11-05T18:33:20.804Z,21.33
2022-11-05T18:38:25.025Z,21.33
2022-11-05T18:43:27.758Z,21.31
2022-11-05T18:48:31.387Z,21.30
2022-11-05T18:53:35.422Z,21.26
2022-11-05T18:58:38.498Z,21.29
2022-11-05T19:03:41.273Z,21.29
2022-11-05T19:08:45.422Z,21.34
2022-11-05T19:13:48.307Z,21.39
2022-11-05T19:18:51.279Z,21.39
2022-11-05T19:23:56.853Z,21.40
2022-11-05T19:29:00.415Z,21.38
2022-11-05T19:34:03.406Z,21.42
2022-11-05T19:39:09.170Z,21.44
2022-11-05T19:44:11.851Z,21.44
2022-11-05T19:49:14.625Z,21.45
2022-11-05T19:54:18.815Z,21.47
2022-11-05T19:59:21.671Z,21.48
2022-11-05T20:04:24.306Z,21.46
2022-11-05T20:09:28.453Z,21.46
2022-11-05T20:14:31.364Z,21.50
2022-11-05T20:19:35.321Z,21.47
2022-11-05T20:24:39.534Z,21.44
2022-11-05T20:29:42.268Z,21.47
2022-11-05T20:34:45.361Z,21.48
2022-11-05T20:39:49.386Z,21.47
2022-11-05T20:44:52.152Z,21.46
2022-11-05T20:49:55.303Z,21.48
2022-11-05T20:54:59.451Z,21.47
2022-11-05T21:00:02.212Z,21.46
2022-11-05T21:05:07.360Z,21.47
2022-11-05T21:10:11.933Z,21.44
2022-11-05T21:15:14.940Z,21.45
2022-11-05T21:20:17.745Z,21.43
2022-11-05T21:25:21.711Z,21.44
2022-11-05T21:30:24.380Z,21.45
2022-11-05T21:35:27.123Z,21.43
2022-11-05T21:40:31.245Z,21.43
2022-11-05T21:45:33.934Z,21.43
2022-11-05T21:50:54.173Z,21.42
2022-11-05T21:56:15.925Z,21.41
2022-11-05T22:01:18.646Z,21.42
2022-11-05T22:06:21.368Z,21.42
2022-11-05T22:11:25.435Z,21.40
2022-11-05T22:16:28.109Z,21.41
2022-11-05T22:21:30.761Z,21.43
2022-11-05T22:26:35.003Z,21.44
2022-11-05T22:31:37.657Z,21.43
2022-11-05T22:36:40.333Z,21.43
2022-11-05T22:41:44.421Z,21.42
2022-11-05T22:46:47.073Z,21.44
2022-11-05T22:51:49.692Z,21.52
2022-11-05T22:56:53.771Z,21.53
2022-11-05T23:01:56.550Z,21.57
2022-11-05T23:07:16.802Z,21.59
2022-11-05T23:12:23.979Z,21.59
2022-11-05T23:17:44.159Z,21.61
2022-11-05T23:23:04.796Z,21.63
2022-11-05T23:28:10.237Z,21.63
2022-11-05T23:33:13.191Z,21.64
2022-11-05T23:38:33.349Z,21.65
2022-11-05T23:43:54.823Z,21.65
2022-11-05T23:49:00.584Z,21.64
2022-11-05T23:54:03.177Z,21.65
2022-11-05T23:59:07.190Z,21.66
